Time;durP1;ratioP1;P1;durP2;ratioP2;P2;SDS_P1;SDS_P2;PMS_P1;PMS_P2;Temp;Humidity;BMP_temperature;BMP_pressure;BME280_temperature;BME280_humidity;BME280_pressure;Samples;Min_cycle;Max_cycle;Signal;HPM_P1;HPM_P2
2021/07/04 00:00:00;;;;;;;14.17;12.43;;;19.70;99.90;;;;;;5034687;28;20172;-76
2021/07/04 00:02:26;;;;;;;14.30;12.57;;;19.70;99.90;;;;;;5049416;28;20289;-75
2021/07/04 00:04:52;;;;;;;16.33;13.17;;;19.80;99.90;;;;;;5053961;28;20201;-75
2021/07/04 00:07:18;;;;;;;13.83;12.17;;;19.90;99.90;;;;;;5053330;28;20170;-75
2021/07/04 00:09:44;;;;;;;14.33;12.53;;;19.90;99.90;;;;;;5053575;28;20228;-75
2021/07/04 00:12:10;;;;;;;14.17;12.87;;;19.90;99.90;;;;;;5054135;28;20175;-76
2021/07/04 00:14:36;;;;;;;15.93;12.57;;;19.90;99.90;;;;;;5054223;28;20590;-75
2021/07/04 00:17:03;;;;;;;15.80;12.40;;;19.80;99.90;;;;;;5053725;28;20216;-76
2021/07/04 00:19:29;;;;;;;13.23;11.90;;;19.80;99.90;;;;;;5055193;28;20201;-75
2021/07/04 00:21:54;;;;;;;13.13;11.73;;;19.70;99.90;;;;;;5055389;28;20201;-79
2021/07/04 00:24:20;;;;;;;13.97;12.33;;;19.60;99.90;;;;;;5054885;28;20182;-82
2021/07/04 00:26:46;;;;;;;14.03;12.63;;;19.60;99.90;;;;;;5054689;28;20169;-79
2021/07/04 00:29:12;;;;;;;13.83;12.30;;;19.60;99.90;;;;;;5069419;28;20259;-79
2021/07/04 00:31:38;;;;;;;13.80;11.47;;;19.50;99.90;;;;;;5054108;28;20214;-83
2021/07/04 00:34:03;;;;;;;13.47;12.07;;;19.50;99.90;;;;;;5054287;28;20173;-82
2021/07/04 00:36:29;;;;;;;15.13;12.70;;;19.60;99.90;;;;;;5053876;28;20171;-77
2021/07/04 00:38:55;;;;;;;14.13;12.63;;;19.60;99.90;;;;;;5068975;28;20274;-83
2021/07/04 00:41:21;;;;;;;14.53;12.97;;;19.70;99.90;;;;;;5053894;28;20652;-76
2021/07/04 00:43:48;;;;;;;13.63;12.23;;;19.60;99.90;;;;;;5054399;28;20178;-80
2021/07/04 00:46:15;;;;;;;17.37;12.63;;;19.70;99.90;;;;;;5053966;28;20174;-76
2021/07/04 00:48:41;;;;;;;20.63;13.03;;;19.60;99.90;;;;;;5054156;28;20166;-77
2021/07/04 00:51:09;;;;;;;14.33;12.83;;;19.50;99.90;;;;;;5053645;28;20189;-77
2021/07/04 00:53:35;;;;;;;16.70;11.83;;;19.40;99.90;;;;;;5054813;28;20188;-80
2021/07/04 00:56:01;;;;;;;15.97;13.10;;;19.50;99.90;;;;;;5055931;28;20169;-79
2021/07/04 00:58:27;;;;;;;15.20;12.70;;;19.60;99.90;;;;;;5065223;28;20230;-76
2021/07/04 01:00:55;;;;;;;14.63;13.10;;;19.50;99.90;;;;;;5059766;28;20186;-78
2021/07/04 01:03:21;;;;;;;15.90;13.27;;;19.40;99.90;;;;;;5057144;28;20201;-76
2021/07/04 01:05:47;;;;;;;14.77;13.23;;;19.40;99.90;;;;;;5056830;28;20740;-77
2021/07/04 01:08:14;;;;;;;14.43;12.57;;;19.40;99.90;;;;;;5055383;28;20170;-82
2021/07/04 01:10:40;;;;;;;14.20;12.70;;;19.30;99.90;;;;;;5055153;28;20161;-82
2021/07/04 01:13:06;;;;;;;14.50;12.93;;;19.30;99.90;;;;;;5054669;28;20165;-83
2021/07/04 01:15:32;;;;;;;16.47;13.00;;;19.40;99.90;;;;;;5054061;28;20169;-77
2021/07/04 01:18:03;;;;;;;15.50;12.50;;;19.30;99.90;;;;;;5054801;28;20177;-81
2021/07/04 01:20:30;;;;;;;15.30;12.80;;;19.40;99.90;;;;;;5055279;28;20189;-84
2021/07/04 01:23:07;;;;;;;14.90;12.50;;;19.40;99.90;;;;;;5063746;28;20278;-76
2021/07/04 01:25:36;;;;;;;15.77;11.33;;;19.10;99.90;;;;;;5068194;28;20155;-75
2021/07/04 01:28:04;;;;;;;14.60;11.20;;;19.00;99.90;;;;;;5065386;28;20228;-75
2021/07/04 01:30:30;;;;;;;14.03;11.80;;;19.00;99.90;;;;;;5059578;28;20532;-75
2021/07/04 01:32:57;;;;;;;12.80;10.50;;;19.00;99.90;;;;;;5058800;28;20184;-78
2021/07/04 01:35:23;;;;;;;14.30;10.80;;;19.00;99.90;;;;;;5067015;28;20226;-77
2021/07/04 01:37:49;;;;;;;12.20;10.60;;;19.00;99.90;;;;;;5066344;28;20178;-76
2021/07/04 01:40:16;;;;;;;13.67;10.80;;;19.00;99.90;;;;;;5068855;28;20193;-77
2021/07/04 01:42:45;;;;;;;12.10;10.83;;;19.10;99.90;;;;;;5069375;28;20207;-77
2021/07/04 01:45:15;;;;;;;12.13;10.80;;;19.10;99.90;;;;;;5058349;28;20152;-83
2021/07/04 01:47:43;;;;;;;13.50;10.67;;;19.20;99.90;;;;;;5057359;28;20220;-82
2021/07/04 01:50:12;;;;;;;15.67;10.73;;;19.20;99.90;;;;;;5056185;28;20192;-76
2021/07/04 01:52:38;;;;;;;14.00;11.03;;;19.30;99.90;;;;;;5058430;28;20226;-81
2021/07/04 01:55:10;;;;;;;12.00;10.80;;;19.40;99.90;;;;;;5058970;28;20191;-78
2021/07/04 01:57:36;;;;;;;11.90;10.60;;;19.30;99.90;;;;;;5071568;28;20173;-77
2021/07/04 02:00:12;;;;;;;11.53;10.00;;;19.20;99.90;;;;;;5071907;28;20169;-76
2021/07/04 02:02:38;;;;;;;13.27;11.03;;;19.20;99.90;;;;;;5067084;28;20215;-76
2021/07/04 02:05:07;;;;;;;13.23;11.13;;;19.10;99.90;;;;;;5071479;28;20157;-76
2021/07/04 02:07:33;;;;;;;12.27;10.57;;;19.00;99.90;;;;;;5072953;28;20181;-75
2021/07/04 02:09:59;;;;;;;12.93;10.43;;;19.10;99.90;;;;;;5070965;28;20229;-75
2021/07/04 02:12:25;;;;;;;11.80;9.77;;;19.10;99.90;;;;;;5070503;28;20169;-77
2021/07/04 02:14:50;;;;;;;12.10;10.80;;;19.10;99.90;;;;;;5072159;28;20162;-79
2021/07/04 02:17:17;;;;;;;11.63;10.50;;;19.10;99.90;;;;;;5071048;28;20173;-75
2021/07/04 02:19:43;;;;;;;14.33;10.97;;;19.20;99.90;;;;;;5070296;28;20182;-76
2021/07/04 02:22:10;;;;;;;13.40;11.53;;;19.30;99.90;;;;;;5069354;28;20228;-82
2021/07/04 02:24:37;;;;;;;14.27;10.60;;;19.30;99.90;;;;;;5063379;28;20231;-77
2021/07/04 02:27:04;;;;;;;11.47;10.23;;;19.30;99.90;;;;;;5059774;28;20169;-78
2021/07/04 02:29:29;;;;;;;12.87;11.10;;;19.30;99.90;;;;;;5057362;28;20200;-75
2021/07/04 02:31:55;;;;;;;12.77;11.20;;;19.20;99.90;;;;;;5057046;28;20506;-83
2021/07/04 02:34:21;;;;;;;12.20;10.93;;;19.30;99.90;;;;;;5057281;28;20174;-77
2021/07/04 02:36:46;;;;;;;13.20;11.80;;;19.20;99.90;;;;;;5056712;28;20296;-80
2021/07/04 02:39:16;;;;;;;14.37;11.33;;;19.20;99.90;;;;;;5056669;28;20628;-77
2021/07/04 02:41:42;;;;;;;12.73;11.37;;;19.30;99.90;;;;;;5056677;28;20208;-78
2021/07/04 02:44:08;;;;;;;14.67;11.53;;;19.40;99.90;;;;;;5057508;28;20164;-83
2021/07/04 02:46:34;;;;;;;12.57;11.27;;;19.40;99.90;;;;;;5057250;28;20170;-82
2021/07/04 02:49:00;;;;;;;13.97;11.60;;;19.40;99.90;;;;;;5057236;28;20248;-82
2021/07/04 02:51:27;;;;;;;13.47;12.17;;;19.50;99.90;;;;;;5056792;28;20672;-82
2021/07/04 02:53:53;;;;;;;15.20;12.00;;;19.60;99.90;;;;;;5057335;28;20651;-81
2021/07/04 02:56:18;;;;;;;14.43;12.70;;;19.60;99.90;;;;;;5056815;28;20163;-82
2021/07/04 02:58:44;;;;;;;13.43;12.03;;;19.70;99.90;;;;;;5063743;28;20174;-80
2021/07/04 03:01:10;;;;;;;14.73;11.77;;;19.80;99.90;;;;;;5063196;28;20172;-81
2021/07/04 03:03:38;;;;;;;15.07;11.80;;;19.80;99.90;;;;;;5057061;28;20181;-81
2021/07/04 03:06:05;;;;;;;13.13;11.73;;;19.80;99.90;;;;;;5057354;28;20177;-78
2021/07/04 03:08:30;;;;;;;13.07;11.77;;;19.60;99.90;;;;;;5056811;28;20254;-82
2021/07/04 03:10:56;;;;;;;17.00;12.63;;;19.80;99.90;;;;;;5072494;28;20198;-78
2021/07/04 03:13:22;;;;;;;13.57;12.27;;;19.80;99.90;;;;;;5056984;28;20167;-77
2021/07/04 03:15:47;;;;;;;13.30;11.80;;;19.80;99.90;;;;;;5056360;28;20636;-82
2021/07/04 03:18:14;;;;;;;14.37;11.63;;;19.60;99.90;;;;;;5056170;28;20219;-79
2021/07/04 03:20:40;;;;;;;12.87;11.57;;;19.60;99.90;;;;;;5061188;28;20198;-80
2021/07/04 03:23:07;;;;;;;12.87;11.57;;;19.50;99.90;;;;;;5074640;28;20214;-75
2021/07/04 03:25:33;;;;;;;12.97;11.63;;;19.60;99.90;;;;;;5074793;28;20179;-73
2021/07/04 03:27:59;;;;;;;13.10;11.67;;;19.60;99.90;;;;;;5076603;28;20142;-75
2021/07/04 03:30:25;;;;;;;13.13;11.87;;;19.50;99.90;;;;;;5073436;28;20172;-75
2021/07/04 03:32:52;;;;;;;14.30;12.80;;;19.50;99.90;;;;;;5074833;28;20212;-75
2021/07/04 03:35:20;;;;;;;12.27;10.87;;;19.60;99.90;;;;;;5062982;28;20213;-78
2021/07/04 03:37:46;;;;;;;14.63;11.80;;;19.60;99.90;;;;;;5064810;28;20512;-83
2021/07/04 03:40:18;;;;;;;13.20;11.83;;;19.70;99.90;;;;;;5061196;28;20174;-76
2021/07/04 03:42:50;;;;;;;14.00;11.93;;;19.80;99.90;;;;;;5056135;28;20225;-78
2021/07/04 03:45:20;;;;;;;12.80;11.50;;;19.80;99.90;;;;;;5071354;28;20255;-77
2021/07/04 03:47:45;;;;;;;13.20;11.90;;;19.70;99.90;;;;;;5055698;28;20163;-77
2021/07/04 03:50:12;;;;;;;13.33;11.93;;;19.70;99.90;;;;;;5056007;28;20760;-76
2021/07/04 03:52:41;;;;;;;13.37;11.70;;;19.60;99.90;;;;;;5055463;28;20166;-82
2021/07/04 03:55:07;;;;;;;12.87;11.57;;;19.70;99.90;;;;;;5056189;28;20261;-78
2021/07/04 03:57:36;;;;;;;12.97;11.53;;;19.60;99.90;;;;;;5069493;28;20209;-80
2021/07/04 04:00:06;;;;;;;14.67;11.73;;;19.70;99.90;;;;;;5067730;28;20340;-76
2021/07/04 04:02:38;;;;;;;13.70;12.33;;;19.60;99.90;;;;;;5063042;28;20237;-77
2021/07/04 04:05:11;;;;;;;13.23;11.83;;;19.60;99.90;;;;;;5057871;28;20190;-82
2021/07/04 04:07:37;;;;;;;13.33;11.93;;;19.70;99.90;;;;;;5072952;28;20176;-82
2021/07/04 04:10:07;;;;;;;14.00;12.60;;;19.70;99.90;;;;;;5056358;28;20617;-75
2021/07/04 04:12:32;;;;;;;14.20;12.70;;;19.60;99.90;;;;;;5058086;28;20229;-77
2021/07/04 04:15:00;;;;;;;15.50;13.13;;;19.70;99.90;;;;;;5074113;28;20158;-83
2021/07/04 04:17:31;;;;;;;13.70;12.33;;;19.70;99.90;;;;;;5062565;28;20159;-82
2021/07/04 04:19:56;;;;;;;14.10;12.67;;;19.50;99.90;;;;;;5063696;28;20197;-82
2021/07/04 04:22:22;;;;;;;15.07;13.20;;;19.50;99.90;;;;;;5065299;28;20217;-78
2021/07/04 04:24:49;;;;;;;14.23;12.73;;;19.30;99.90;;;;;;5068217;28;20181;-75
2021/07/04 04:27:15;;;;;;;14.77;13.00;;;19.20;99.90;;;;;;5066273;28;20171;-77
2021/07/04 04:29:41;;;;;;;15.03;12.47;;;19.10;99.90;;;;;;5065606;28;20158;-75
2021/07/04 04:32:07;;;;;;;14.07;12.60;;;19.20;99.90;;;;;;5067220;28;20255;-76
2021/07/04 04:34:34;;;;;;;14.63;12.83;;;19.30;99.90;;;;;;5067621;28;20197;-75
2021/07/04 04:37:01;;;;;;;14.10;12.67;;;19.30;99.90;;;;;;5070291;28;20174;-74
2021/07/04 04:39:42;;;;;;;14.87;12.83;;;19.30;99.90;;;;;;5057623;28;20176;-82
2021/07/04 04:42:14;;;;;;;13.73;12.10;;;19.50;99.90;;;;;;5055180;28;20201;-79
2021/07/04 04:44:42;;;;;;;17.07;13.03;;;19.30;99.90;;;;;;5056222;28;20150;-79
2021/07/04 04:47:09;;;;;;;14.13;12.73;;;19.40;99.90;;;;;;5057011;28;20163;-77
2021/07/04 04:49:35;;;;;;;16.47;14.77;;;19.60;99.90;;;;;;5055861;28;20169;-77
2021/07/04 04:52:05;;;;;;;15.67;14.00;;;19.60;99.90;;;;;;5057482;28;20171;-83
2021/07/04 04:54:50;;;;;;;13.93;12.43;;;19.70;99.90;;;;;;5070135;28;20158;-76
2021/07/04 04:57:18;;;;;;;14.10;12.60;;;19.60;99.90;;;;;;5070897;28;20178;-75
2021/07/04 04:59:43;;;;;;;13.93;12.47;;;19.50;99.90;;;;;;5071957;28;20157;-74
2021/07/04 05:02:10;;;;;;;13.40;12.03;;;19.50;99.90;;;;;;5071932;28;20195;-81
2021/07/04 05:04:36;;;;;;;13.63;12.23;;;19.60;99.90;;;;;;5072571;28;20173;-76
2021/07/04 05:07:09;;;;;;;13.93;12.50;;;19.60;99.90;;;;;;5065638;28;20718;-79
2021/07/04 05:09:48;;;;;;;14.50;13.00;;;19.60;99.90;;;;;;5070535;28;20210;-82
2021/07/04 05:12:14;;;;;;;14.47;12.73;;;19.80;99.90;;;;;;5063086;28;20158;-76
2021/07/04 05:14:41;;;;;;;15.53;14.03;;;20.00;99.90;;;;;;5060283;28;20650;-81
2021/07/04 05:17:16;;;;;;;15.60;13.93;;;20.10;99.90;;;;;;5054295;28;20629;-83
2021/07/04 05:19:42;;;;;;;14.63;12.80;;;20.20;99.90;;;;;;5054236;28;20273;-83
2021/07/04 05:22:08;;;;;;;14.13;12.73;;;20.20;99.90;;;;;;5053755;28;20325;-82
2021/07/04 05:24:34;;;;;;;15.03;12.43;;;20.40;99.90;;;;;;5054000;28;20175;-82
2021/07/04 05:27:00;;;;;;;13.83;12.47;;;20.60;99.90;;;;;;5054150;28;20183;-75
2021/07/04 05:29:25;;;;;;;13.63;12.23;;;20.70;99.90;;;;;;5057414;28;20173;-79
2021/07/04 05:31:51;;;;;;;14.47;12.93;;;20.70;99.70;;;;;;5055926;28;20627;-83
2021/07/04 05:34:17;;;;;;;13.67;12.27;;;20.70;99.70;;;;;;5055093;28;20216;-81
2021/07/04 05:36:46;;;;;;;13.43;12.13;;;20.70;99.90;;;;;;5055029;28;20711;-78
2021/07/04 05:39:11;;;;;;;12.83;11.40;;;20.60;99.90;;;;;;5055582;28;20164;-82
2021/07/04 05:41:37;;;;;;;12.53;11.33;;;20.70;99.90;;;;;;5055987;28;20251;-81
2021/07/04 05:44:03;;;;;;;13.97;12.57;;;20.90;99.90;;;;;;5054585;28;20663;-77
2021/07/04 05:46:29;;;;;;;13.00;11.73;;;20.90;99.90;;;;;;5069548;28;20565;-75
2021/07/04 05:48:55;;;;;;;13.77;12.37;;;21.10;99.90;;;;;;5055001;28;20222;-82
2021/07/04 05:51:21;;;;;;;12.77;11.57;;;21.10;99.20;;;;;;5055065;28;20163;-76
2021/07/04 05:53:46;;;;;;;14.60;11.97;;;21.20;98.50;;;;;;5055509;28;20169;-83
2021/07/04 05:56:12;;;;;;;11.17;10.10;;;21.30;98.50;;;;;;5057471;28;20172;-80
2021/07/04 05:58:37;;;;;;;12.57;11.23;;;21.30;97.70;;;;;;5063622;28;20179;-76
2021/07/04 06:01:03;;;;;;;10.80;9.70;;;21.30;96.90;;;;;;5064003;28;20176;-77
2021/07/04 06:03:29;;;;;;;12.13;10.07;;;21.30;96.60;;;;;;5066216;28;20290;-76
2021/07/04 06:05:55;;;;;;;11.43;10.23;;;21.40;96.30;;;;;;5064389;28;20191;-79
2021/07/04 06:08:20;;;;;;;11.97;10.53;;;21.50;96.30;;;;;;5065179;28;20231;-75
2021/07/04 06:10:47;;;;;;;11.20;10.00;;;21.50;96.30;;;;;;5067304;28;20166;-74
2021/07/04 06:13:12;;;;;;;12.30;10.77;;;21.60;96.30;;;;;;5064416;28;20188;-76
2021/07/04 06:15:38;;;;;;;11.17;10.07;;;21.80;95.60;;;;;;5058576;28;20166;-81
2021/07/04 06:18:04;;;;;;;10.93;9.83;;;21.90;94.60;;;;;;5059155;28;20209;-75
2021/07/04 06:20:29;;;;;;;10.73;9.63;;;21.70;93.80;;;;;;5062956;28;20208;-76
2021/07/04 06:22:55;;;;;;;13.93;9.97;;;21.70;94.00;;;;;;5059426;28;20227;-77
2021/07/04 06:25:22;;;;;;;10.87;9.83;;;21.70;94.50;;;;;;5056110;28;20637;-78
2021/07/04 06:27:49;;;;;;;11.20;10.17;;;21.60;94.40;;;;;;5057893;28;20648;-81
2021/07/04 06:30:15;;;;;;;12.10;9.57;;;21.80;93.70;;;;;;5055438;28;20165;-82
2021/07/04 06:32:42;;;;;;;10.87;9.77;;;21.90;92.00;;;;;;5054097;28;20186;-76
2021/07/04 06:35:10;;;;;;;10.23;9.20;;;21.90;91.00;;;;;;5054329;28;20242;-83
2021/07/04 06:37:36;;;;;;;9.67;8.50;;;22.00;90.80;;;;;;5054134;28;20598;-81
2021/07/04 06:40:04;;;;;;;10.23;9.23;;;22.00;90.80;;;;;;5056974;28;20175;-81
2021/07/04 06:42:29;;;;;;;9.27;8.37;;;22.00;90.70;;;;;;5057410;28;20216;-82
2021/07/04 06:44:55;;;;;;;10.27;9.23;;;22.00;90.30;;;;;;5056822;28;20173;-76
2021/07/04 06:47:21;;;;;;;8.97;8.17;;;22.00;88.70;;;;;;5055981;28;20515;-76
2021/07/04 06:49:46;;;;;;;8.67;7.60;;;22.10;90.00;;;;;;5056493;28;20256;-84
2021/07/04 06:52:12;;;;;;;8.40;7.30;;;22.10;90.10;;;;;;5065906;28;20177;-76
2021/07/04 06:54:38;;;;;;;8.10;7.30;;;22.10;88.70;;;;;;5067370;28;20169;-75
2021/07/04 06:59:49;;;;;;;8.43;7.53;;;22.30;86.20;;;;;;5060689;28;20176;-83
2021/07/04 07:02:14;;;;;;;7.73;7.00;;;22.30;89.40;;;;;;5057147;28;20232;-76
2021/07/04 07:04:40;;;;;;;7.67;6.87;;;22.40;90.00;;;;;;5057583;28;20178;-83
2021/07/04 07:07:06;;;;;;;6.87;5.77;;;22.70;86.20;;;;;;5045369;28;20177;-79
2021/07/04 07:09:31;;;;;;;7.70;5.73;;;22.40;80.00;;;;;;5039482;28;20591;-76
2021/07/04 07:11:57;;;;;;;6.70;5.20;;;21.80;85.80;;;;;;5037116;28;20529;-81
2021/07/04 07:14:23;;;;;;;6.60;4.57;;;21.60;90.00;;;;;;5036605;28;20652;-77
2021/07/04 07:16:49;;;;;;;5.67;5.07;;;21.90;87.80;;;;;;5035292;28;20222;-81
2021/07/04 07:19:14;;;;;;;6.33;5.53;;;22.10;84.00;;;;;;5037047;28;20171;-81
2021/07/04 07:21:41;;;;;;;6.13;5.53;;;22.20;83.40;;;;;;5036782;28;20213;-77
2021/07/04 07:24:08;;;;;;;7.73;5.83;;;21.90;84.80;;;;;;5036271;28;20538;-76
2021/07/04 07:26:34;;;;;;;7.67;5.80;;;21.80;88.10;;;;;;5035994;28;20177;-75
2021/07/04 07:29:01;;;;;;;5.90;5.30;;;21.80;87.70;;;;;;5035826;28;20169;-78
2021/07/04 07:31:27;;;;;;;6.60;5.23;;;21.90;87.40;;;;;;5035039;28;20532;-80
2021/07/04 07:33:53;;;;;;;6.13;5.10;;;21.80;84.60;;;;;;5041660;28;20174;-75
2021/07/04 07:36:19;;;;;;;5.53;3.53;;;22.20;81.50;;;;;;5037141;28;20216;-75
2021/07/04 07:38:45;;;;;;;6.57;5.70;;;22.40;73.00;;;;;;5034022;28;20220;-74
2021/07/04 07:41:11;;;;;;;4.40;3.47;;;22.60;67.30;;;;;;5035232;28;20632;-82
2021/07/04 07:43:36;;;;;;;3.33;2.60;;;22.40;66.40;;;;;;5055649;28;20204;-80
2021/07/04 07:46:02;;;;;;;4.40;2.87;;;22.60;63.30;;;;;;5044825;28;20186;-75
2021/07/04 07:48:28;;;;;;;4.23;3.13;;;22.90;58.90;;;;;;5044730;28;20259;-75
2021/07/04 07:50:54;;;;;;;4.73;3.23;;;22.80;56.80;;;;;;5044025;28;20268;-79
2021/07/04 07:53:20;;;;;;;5.00;3.17;;;22.90;54.40;;;;;;5052157;28;20178;-83
2021/07/04 07:55:46;;;;;;;5.30;3.50;;;23.10;53.70;;;;;;5056058;28;20246;-76
2021/07/04 07:58:11;;;;;;;6.17;3.43;;;23.00;56.40;;;;;;5057407;28;20548;-79
2021/07/04 08:00:37;;;;;;;5.63;3.50;;;23.10;58.90;;;;;;5061262;28;20538;-80
2021/07/04 08:03:04;;;;;;;5.93;3.37;;;23.00;57.70;;;;;;5065066;28;20668;-74
2021/07/04 08:05:30;;;;;;;6.03;2.90;;;22.90;56.70;;;;;;5055333;28;20184;-75
2021/07/04 08:07:56;;;;;;;5.30;2.90;;;22.70;58.40;;;;;;5048785;28;20199;-76
2021/07/04 08:10:21;;;;;;;4.33;2.80;;;22.70;63.50;;;;;;5067515;28;20237;-80
2021/07/04 08:12:47;;;;;;;3.97;2.87;;;22.70;61.00;;;;;;5055257;28;20180;-81
2021/07/04 08:15:14;;;;;;;3.13;2.80;;;22.90;57.30;;;;;;5048995;28;20173;-78
2021/07/04 08:17:44;;;;;;;4.37;2.83;;;23.20;52.80;;;;;;5043204;28;20173;-82
2021/07/04 08:20:10;;;;;;;4.37;2.77;;;23.40;50.80;;;;;;5042440;28;20188;-80
2021/07/04 08:22:39;;;;;;;4.40;2.70;;;23.50;50.60;;;;;;5039540;28;20252;-82
2021/07/04 08:25:11;;;;;;;3.03;2.20;;;23.70;48.50;;;;;;5037059;28;20165;-81
2021/07/04 08:27:38;;;;;;;3.00;2.50;;;23.80;44.30;;;;;;5037179;28;20191;-83
2021/07/04 08:30:07;;;;;;;3.90;2.50;;;23.40;46.10;;;;;;5038368;28;20172;-80
2021/07/04 08:32:33;;;;;;;3.23;2.60;;;22.90;51.80;;;;;;5039129;28;20184;-81
2021/07/04 08:34:59;;;;;;;3.83;2.43;;;22.90;53.20;;;;;;5037554;28;20181;-79
2021/07/04 08:37:25;;;;;;;3.93;2.90;;;23.10;52.20;;;;;;5035246;28;20172;-83
2021/07/04 08:39:51;;;;;;;4.43;2.63;;;23.00;50.30;;;;;;5044620;28;20168;-83
2021/07/04 08:42:19;;;;;;;2.90;2.57;;;22.70;56.70;;;;;;5037297;28;20238;-80
2021/07/04 08:44:52;;;;;;;5.00;2.90;;;22.80;58.30;;;;;;5035565;28;20633;-82
2021/07/04 08:47:19;;;;;;;3.37;2.70;;;23.10;55.70;;;;;;5037338;28;20175;-82
2021/07/04 08:49:47;;;;;;;3.40;2.93;;;23.10;54.00;;;;;;5037838;28;20184;-81
2021/07/04 08:52:13;;;;;;;3.57;3.00;;;23.20;54.40;;;;;;5043596;28;20180;-79
2021/07/04 08:54:39;;;;;;;4.70;3.20;;;22.90;55.80;;;;;;5046023;28;20265;-76
2021/07/04 08:57:08;;;;;;;4.90;3.00;;;22.90;57.00;;;;;;5051009;28;20179;-78
2021/07/04 08:59:39;;;;;;;8.83;3.23;;;22.90;56.60;;;;;;5053393;28;20194;-79
2021/07/04 09:02:11;;;;;;;5.83;3.60;;;22.60;65.00;;;;;;5044585;28;20745;-81
2021/07/04 09:04:39;;;;;;;4.03;3.10;;;22.40;66.50;;;;;;5038848;28;20225;-81
2021/07/04 09:07:08;;;;;;;3.77;3.17;;;22.40;67.70;;;;;;5036481;28;20172;-82
2021/07/04 09:09:37;;;;;;;4.33;3.40;;;22.60;65.50;;;;;;5039971;28;20628;-81
2021/07/04 09:12:11;;;;;;;4.10;3.30;;;22.80;66.00;;;;;;5038522;28;20187;-81
2021/07/04 09:14:45;;;;;;;3.10;2.30;;;23.10;62.80;;;;;;5037999;28;20165;-81
2021/07/04 09:17:14;;;;;;;2.70;2.13;;;23.20;61.80;;;;;;5037483;28;20165;-80
2021/07/04 09:19:51;;;;;;;4.30;2.63;;;23.10;60.80;;;;;;5039994;28;20172;-81
2021/07/04 09:22:17;;;;;;;3.10;2.63;;;23.10;62.30;;;;;;5041544;28;20219;-80
2021/07/04 09:24:43;;;;;;;4.43;3.00;;;23.30;62.40;;;;;;5041894;28;20165;-80
2021/07/04 09:27:14;;;;;;;3.07;2.47;;;23.50;60.80;;;;;;5052386;28;20178;-80
2021/07/04 09:29:49;;;;;;;4.03;2.70;;;23.40;60.40;;;;;;5055869;28;20177;-77
2021/07/04 09:32:19;;;;;;;3.47;2.70;;;23.00;66.10;;;;;;5055799;28;20153;-80
2021/07/04 09:34:55;;;;;;;3.97;2.83;;;22.80;66.40;;;;;;5042435;28;20192;-81
2021/07/04 09:37:35;;;;;;;3.10;2.60;;;23.00;67.40;;;;;;5047305;28;20176;-81
2021/07/04 09:40:26;;;;;;;3.50;2.70;;;23.20;62.70;;;;;;5040944;28;20639;-80
2021/07/04 09:42:57;;;;;;;3.10;2.57;;;23.10;61.60;;;;;;5036909;28;20216;-83
2021/07/04 09:45:27;;;;;;;4.83;3.10;;;23.00;65.40;;;;;;5040229;28;20164;-83
2021/07/04 09:48:07;;;;;;;3.83;2.67;;;23.10;64.30;;;;;;5038338;28;20255;-83
2021/07/04 09:50:42;;;;;;;4.00;2.90;;;23.30;61.60;;;;;;5035879;28;20189;-84
2021/07/04 09:53:08;;;;;;;4.70;3.10;;;23.20;63.10;;;;;;5038968;28;20171;-82
2021/07/04 09:55:35;;;;;;;4.40;3.20;;;22.90;69.80;;;;;;5038010;28;20238;-82
2021/07/04 09:58:07;;;;;;;4.67;3.00;;;22.80;69.20;;;;;;5037209;28;20175;-82
2021/07/04 10:00:36;;;;;;;3.70;2.80;;;22.70;69.40;;;;;;5039573;28;20229;-80
2021/07/04 10:03:13;;;;;;;4.83;2.40;;;23.00;68.50;;;;;;5036494;28;20257;-80
2021/07/04 10:05:59;;;;;;;3.93;2.80;;;23.10;62.70;;;;;;5033066;28;20208;-83
2021/07/04 10:08:36;;;;;;;3.23;2.73;;;22.90;69.60;;;;;;5033807;28;20214;-83
2021/07/04 10:11:12;;;;;;;4.97;3.00;;;22.60;76.70;;;;;;5031470;28;20176;-82
2021/07/04 10:13:43;;;;;;;5.13;3.00;;;22.50;76.70;;;;;;5033380;28;20515;-81
2021/07/04 10:16:11;;;;;;;4.47;3.20;;;22.50;79.80;;;;;;5038301;28;20627;-81
2021/07/04 10:18:39;;;;;;;3.93;3.13;;;22.50;80.70;;;;;;5042273;28;20199;-84
2021/07/04 10:21:06;;;;;;;5.10;3.20;;;22.70;80.50;;;;;;5040401;28;20191;-84
2021/07/04 10:23:33;;;;;;;4.00;3.13;;;22.80;76.90;;;;;;5044340;28;20209;-82
2021/07/04 10:26:01;;;;;;;0.57;0.57;;;22.80;74.80;;;;;;5043546;28;20255;-82
2021/07/04 10:28:39;;;;;;;3.07;0.90;;;21.30;44.60;;;;;;5043525;28;20236;-84
2021/07/04 10:31:11;;;;;;;4.00;1.40;;;20.30;65.80;;;;;;5042918;28;20235;-81
2021/07/04 10:33:37;;;;;;;5.70;1.20;;;19.70;81.60;;;;;;5044114;28;20249;-83
2021/07/04 10:36:07;;;;;;;4.80;1.30;;;18.70;92.80;;;;;;5039065;28;20209;-79
2021/07/04 10:38:55;;;;;;;3.70;1.30;;;18.20;97.30;;;;;;5042894;28;20177;-82
2021/07/04 10:41:30;;;;;;;3.33;1.00;;;17.30;99.90;;;;;;5043411;28;20176;-80
2021/07/04 10:43:56;;;;;;;3.20;1.00;;;16.80;99.90;;;;;;5047364;28;20224;-82
2021/07/04 10:46:41;;;;;;;3.20;0.90;;;16.60;99.90;;;;;;5046236;28;20192;-82
2021/07/04 10:49:11;;;;;;;4.30;1.27;;;16.50;99.90;;;;;;5046092;28;20181;-80
2021/07/04 10:52:00;;;;;;;3.93;0.83;;;16.50;99.90;;;;;;5044494;28;20630;-79
2021/07/04 10:54:47;;;;;;;4.53;1.30;;;16.40;99.90;;;;;;5041902;28;20253;-79
2021/07/04 10:57:15;;;;;;;2.13;1.10;;;16.40;99.90;;;;;;5042488;28;20634;-82
2021/07/04 11:00:08;;;;;;;4.07;1.10;;;16.30;99.90;;;;;;5046549;28;20272;-80
2021/07/04 11:02:46;;;;;;;3.63;1.00;;;16.40;99.90;;;;;;5046102;28;20573;-82
2021/07/04 11:05:41;;;;;;;2.20;1.20;;;16.20;99.90;;;;;;5043643;28;20238;-80
2021/07/04 11:08:15;;;;;;;2.97;1.10;;;16.20;99.90;;;;;;5048217;28;20178;-76
2021/07/04 11:10:50;;;;;;;5.03;1.70;;;16.30;99.90;;;;;;5052270;28;20178;-79
2021/07/04 11:13:15;;;;;;;3.13;1.27;;;16.30;99.90;;;;;;5047208;28;20167;-78
2021/07/04 11:15:43;;;;;;;2.17;1.10;;;16.30;99.90;;;;;;5042596;28;20170;-82
2021/07/04 11:18:10;;;;;;;3.13;1.13;;;16.30;99.90;;;;;;5044522;28;20169;-80
2021/07/04 11:20:39;;;;;;;1.60;1.00;;;16.30;99.90;;;;;;5046195;28;20190;-81
2021/07/04 11:23:08;;;;;;;3.67;1.30;;;16.50;99.90;;;;;;5047202;28;20213;-84
2021/07/04 11:25:54;;;;;;;5.30;1.50;;;16.50;99.90;;;;;;5049920;28;20174;-83
2021/07/04 11:28:23;;;;;;;2.73;1.30;;;16.60;99.90;;;;;;5045429;28;20174;-84
2021/07/04 11:30:59;;;;;;;2.63;0.83;;;16.80;99.90;;;;;;5045462;28;20165;-81
2021/07/04 11:33:38;;;;;;;2.60;1.30;;;16.80;99.90;;;;;;5052333;28;20176;-80
2021/07/04 11:36:20;;;;;;;1.87;0.83;;;16.90;99.90;;;;;;5057370;28;20185;-77
2021/07/04 11:39:11;;;;;;;1.37;0.73;;;16.90;99.90;;;;;;5057738;28;20157;-80
2021/07/04 11:41:55;;;;;;;2.13;0.87;;;17.00;99.90;;;;;;5064825;28;20195;-77
2021/07/04 11:44:23;;;;;;;1.60;0.90;;;17.30;99.90;;;;;;5071814;28;20172;-78
2021/07/04 11:46:51;;;;;;;0.70;0.60;;;17.30;99.90;;;;;;5072584;28;20173;-77
2021/07/04 11:49:22;;;;;;;3.70;1.30;;;17.40;99.90;;;;;;5066265;28;20172;-79
2021/07/04 11:51:50;;;;;;;1.37;0.90;;;17.50;99.90;;;;;;5063989;28;20153;-81
2021/07/04 11:54:26;;;;;;;1.43;0.60;;;17.50;99.90;;;;;;5065266;28;20154;-82
2021/07/04 11:57:29;;;;;;;1.27;0.90;;;17.50;99.90;;;;;;5069901;28;20165;-80
2021/07/04 12:00:07;;;;;;;1.00;0.80;;;17.50;99.90;;;;;;5074768;28;20177;-77
2021/07/04 12:02:43;;;;;;;2.13;1.10;;;17.40;99.90;;;;;;5076471;28;20193;-78
2021/07/04 12:05:13;;;;;;;1.10;0.80;;;17.40;99.90;;;;;;5076245;28;20200;-79
2021/07/04 12:07:39;;;;;;;1.13;0.77;;;17.50;99.90;;;;;;5076912;28;20160;-78
2021/07/04 12:10:06;;;;;;;1.20;0.80;;;17.50;99.90;;;;;;5076890;28;20238;-82
2021/07/04 12:12:36;;;;;;;1.13;0.70;;;17.70;99.90;;;;;;5077831;28;20225;-79
2021/07/04 12:15:12;;;;;;;1.60;0.83;;;17.50;99.90;;;;;;5069296;28;20162;-80
2021/07/04 12:17:44;;;;;;;2.17;1.10;;;17.50;99.90;;;;;;5069901;28;20651;-82
2021/07/04 12:20:23;;;;;;;3.37;1.23;;;17.60;99.90;;;;;;5070857;28;20194;-82
2021/07/04 12:23:05;;;;;;;3.27;1.30;;;17.70;99.90;;;;;;5064045;28;20276;-81
2021/07/04 12:25:33;;;;;;;2.00;0.97;;;17.90;99.90;;;;;;5063151;28;20162;-82
2021/07/04 12:28:10;;;;;;;2.23;1.30;;;17.90;99.90;;;;;;5062971;28;20184;-82
2021/07/04 12:30:43;;;;;;;1.97;1.40;;;18.00;99.90;;;;;;5060693;28;20248;-82
2021/07/04 12:33:14;;;;;;;2.87;1.20;;;18.10;99.90;;;;;;5059814;28;20256;-82
2021/07/04 12:35:55;;;;;;;1.60;1.10;;;18.20;99.90;;;;;;5059943;28;20177;-83
2021/07/04 12:38:35;;;;;;;1.70;0.93;;;18.50;99.90;;;;;;5063136;28;20511;-84
2021/07/04 12:41:11;;;;;;;1.13;0.80;;;18.70;99.90;;;;;;5063965;28;20181;-83
2021/07/04 12:43:48;;;;;;;2.17;0.87;;;18.80;99.90;;;;;;5063845;28;20208;-81
2021/07/04 12:46:28;;;;;;;2.60;1.00;;;18.90;99.90;;;;;;5061791;28;20180;-80